Urbandale, Missouri
Current Conditions -  °F | °C
As of 8:15 AM on Thursday 23 Oct 2014 (Local Time) from KVER Reporting Station
Overcast Overcast  
Wind Chill: 53°   Ceiling: 2800
Heat Index: 53°   Visibility: 10mi
Dew Point: 44°   Wind: 8mph
Humidity: 72%   Direction: 180°S
Pressure: 30.14"   Gusts: NA
Location:  39.4377°N, 92.3968°W
Report Text: KVER 231315Z AUTO 18007KT 10SM OVC028 12/07 A3014 RMK AO2 T01160067
Loading
Personal Weather Stations






























Interactive Weather Map
Tropical Storm Tracking
New forecast layout! Learn more

10-Day Weather Forecast

Advertisements
Track Severe Weather on mobile